sensor_id;sensor_type;location;lat;lon;timestamp;temperature;humidity
65396;HTU21D;52004;45.136;39.010;2023-06-22T00:02:00;20.75;60.78
65396;HTU21D;52004;45.136;39.010;2023-06-22T00:04:26;20.73;60.77
65396;HTU21D;52004;45.136;39.010;2023-06-22T00:06:52;20.70;60.83
65396;HTU21D;52004;45.136;39.010;2023-06-22T00:09:18;20.66;60.83
65396;HTU21D;52004;45.136;39.010;2023-06-22T00:11:45;20.64;60.87
65396;HTU21D;52004;45.136;39.010;2023-06-22T00:14:11;20.60;60.90
65396;HTU21D;52004;45.136;39.010;2023-06-22T00:16:37;20.57;60.96
65396;HTU21D;52004;45.136;39.010;2023-06-22T00:19:03;20.56;60.99
65396;HTU21D;52004;45.136;39.010;2023-06-22T00:21:30;20.54;60.99
65396;HTU21D;52004;45.136;39.010;2023-06-22T00:23:56;20.50;61.02
65396;HTU21D;52004;45.136;39.010;2023-06-22T00:26:22;20.47;61.08
65396;HTU21D;52004;45.136;39.010;2023-06-22T00:28:48;20.45;61.10
65396;HTU21D;52004;45.136;39.010;2023-06-22T00:31:14;20.43;61.13
65396;HTU21D;52004;45.136;39.010;2023-06-22T00:33:40;20.39;61.17
65396;HTU21D;52004;45.136;39.010;2023-06-22T00:36:06;20.37;61.21
65396;HTU21D;52004;45.136;39.010;2023-06-22T00:38:38;20.35;61.21
65396;HTU21D;52004;45.136;39.010;2023-06-22T00:41:07;20.32;61.25
65396;HTU21D;52004;45.136;39.010;2023-06-22T00:43:35;20.27;61.28
65396;HTU21D;52004;45.136;39.010;2023-06-22T00:46:02;20.25;61.36
65396;HTU21D;52004;45.136;39.010;2023-06-22T00:48:28;20.22;61.39
65396;HTU21D;52004;45.136;39.010;2023-06-22T00:50:54;20.20;61.42
65396;HTU21D;52004;45.136;39.010;2023-06-22T00:53:22;20.17;61.43
65396;HTU21D;52004;45.136;39.010;2023-06-22T00:55:48;20.16;61.47
65396;HTU21D;52004;45.136;39.010;2023-06-22T00:58:17;20.13;61.48
65396;HTU21D;52004;45.136;39.010;2023-06-22T01:00:48;20.10;61.47
65396;HTU21D;52004;45.136;39.010;2023-06-22T01:03:14;20.07;61.49
65396;HTU21D;52004;45.136;39.010;2023-06-22T01:05:42;20.04;61.54
65396;HTU21D;52004;45.136;39.010;2023-06-22T01:08:16;20.01;61.58
65396;HTU21D;52004;45.136;39.010;2023-06-22T01:10:53;19.99;61.62
65396;HTU21D;52004;45.136;39.010;2023-06-22T01:13:30;19.94;61.66
65396;HTU21D;52004;45.136;39.010;2023-06-22T01:16:13;19.90;61.67
65396;HTU21D;52004;45.136;39.010;2023-06-22T01:18:40;19.89;61.72
65396;HTU21D;52004;45.136;39.010;2023-06-22T01:21:08;19.86;61.76
65396;HTU21D;52004;45.136;39.010;2023-06-22T01:23:54;19.83;61.79
65396;HTU21D;52004;45.136;39.010;2023-06-22T01:28:56;19.77;61.84
65396;HTU21D;52004;45.136;39.010;2023-06-22T01:31:24;19.74;61.86
65396;HTU21D;52004;45.136;39.010;2023-06-22T01:33:54;19.70;61.88
65396;HTU21D;52004;45.136;39.010;2023-06-22T01:36:21;19.67;61.96
65396;HTU21D;52004;45.136;39.010;2023-06-22T01:38:47;19.65;62.03
65396;HTU21D;52004;45.136;39.010;2023-06-22T01:41:13;19.61;62.05
65396;HTU21D;52004;45.136;39.010;2023-06-22T01:43:40;19.58;62.07
65396;HTU21D;52004;45.136;39.010;2023-06-22T01:46:06;19.55;62.12
65396;HTU21D;52004;45.136;39.010;2023-06-22T01:48:32;19.53;62.17
65396;HTU21D;52004;45.136;39.010;2023-06-22T01:51:01;19.51;62.17
65396;HTU21D;52004;45.136;39.010;2023-06-22T01:53:27;19.50;62.20
65396;HTU21D;52004;45.136;39.010;2023-06-22T01:55:53;19.46;62.24
65396;HTU21D;52004;45.136;39.010;2023-06-22T01:58:20;19.46;62.26
65396;HTU21D;52004;45.136;39.010;2023-06-22T02:00:48;19.44;62.28
65396;HTU21D;52004;45.136;39.010;2023-06-22T02:03:19;19.43;62.35
65396;HTU21D;52004;45.136;39.010;2023-06-22T02:06:01;19.41;62.43
65396;HTU21D;52004;45.136;39.010;2023-06-22T02:08:29;19.42;62.44
65396;HTU21D;52004;45.136;39.010;2023-06-22T02:10:58;19.43;62.46
65396;HTU21D;52004;45.136;39.010;2023-06-22T02:13:25;19.43;62.47
65396;HTU21D;52004;45.136;39.010;2023-06-22T02:15:52;19.44;62.45
65396;HTU21D;52004;45.136;39.010;2023-06-22T02:18:18;19.44;62.51
65396;HTU21D;52004;45.136;39.010;2023-06-22T02:20:45;19.44;62.54
65396;HTU21D;52004;45.136;39.010;2023-06-22T02:23:11;19.45;62.54
65396;HTU21D;52004;45.136;39.010;2023-06-22T02:25:37;19.45;62.62
65396;HTU21D;52004;45.136;39.010;2023-06-22T02:28:03;19.47;62.67
65396;HTU21D;52004;45.136;39.010;2023-06-22T02:30:29;19.50;62.70
65396;HTU21D;52004;45.136;39.010;2023-06-22T02:32:55;19.52;62.71
65396;HTU21D;52004;45.136;39.010;2023-06-22T02:35:25;19.56;62.73
65396;HTU21D;52004;45.136;39.010;2023-06-22T02:37:51;19.59;62.75
65396;HTU21D;52004;45.136;39.010;2023-06-22T02:40:17;19.63;62.75
65396;HTU21D;52004;45.136;39.010;2023-06-22T02:42:43;19.67;62.76
65396;HTU21D;52004;45.136;39.010;2023-06-22T02:45:09;19.71;62.78
65396;HTU21D;52004;45.136;39.010;2023-06-22T02:47:35;19.76;62.79
65396;HTU21D;52004;45.136;39.010;2023-06-22T02:50:01;19.81;62.79
65396;HTU21D;52004;45.136;39.010;2023-06-22T02:52:30;19.85;62.77
65396;HTU21D;52004;45.136;39.010;2023-06-22T02:54:56;19.90;62.76
65396;HTU21D;52004;45.136;39.010;2023-06-22T02:57:22;19.95;62.77
65396;HTU21D;52004;45.136;39.010;2023-06-22T02:59:48;20.00;62.78
65396;HTU21D;52004;45.136;39.010;2023-06-22T03:02:14;20.05;62.76
65396;HTU21D;52004;45.136;39.010;2023-06-22T03:04:41;20.07;62.79
65396;HTU21D;52004;45.136;39.010;2023-06-22T03:07:07;20.13;62.79
65396;HTU21D;52004;45.136;39.010;2023-06-22T03:09:34;20.16;62.80
65396;HTU21D;52004;45.136;39.010;2023-06-22T03:12:00;20.20;62.83
65396;HTU21D;52004;45.136;39.010;2023-06-22T03:14:35;20.26;62.81
65396;HTU21D;52004;45.136;39.010;2023-06-22T03:17:04;20.31;62.84
65396;HTU21D;52004;45.136;39.010;2023-06-22T03:19:30;20.36;62.86
65396;HTU21D;52004;45.136;39.010;2023-06-22T03:21:57;20.43;62.85
65396;HTU21D;52004;45.136;39.010;2023-06-22T03:24:24;20.48;62.83
65396;HTU21D;52004;45.136;39.010;2023-06-22T03:26:50;20.56;62.84
65396;HTU21D;52004;45.136;39.010;2023-06-22T03:29:16;20.61;62.84
65396;HTU21D;52004;45.136;39.010;2023-06-22T03:31:44;20.69;62.85
65396;HTU21D;52004;45.136;39.010;2023-06-22T03:34:10;20.75;62.86
65396;HTU21D;52004;45.136;39.010;2023-06-22T03:36:36;20.84;62.82
65396;HTU21D;52004;45.136;39.010;2023-06-22T03:39:03;20.90;62.79
65396;HTU21D;52004;45.136;39.010;2023-06-22T03:41:29;20.98;62.80
65396;HTU21D;52004;45.136;39.010;2023-06-22T03:43:56;21.06;62.73
65396;HTU21D;52004;45.136;39.010;2023-06-22T03:46:22;21.13;62.69
65396;HTU21D;52004;45.136;39.010;2023-06-22T03:48:47;21.17;62.65
65396;HTU21D;52004;45.136;39.010;2023-06-22T03:51:13;21.22;62.67
65396;HTU21D;52004;45.136;39.010;2023-06-22T03:53:39;21.29;62.69
65396;HTU21D;52004;45.136;39.010;2023-06-22T03:56:06;21.39;62.70
65396;HTU21D;52004;45.136;39.010;2023-06-22T03:58:31;21.45;62.66
65396;HTU21D;52004;45.136;39.010;2023-06-22T04:00:58;21.52;62.66
65396;HTU21D;52004;45.136;39.010;2023-06-22T04:03:25;21.60;62.62
65396;HTU21D;52004;45.136;39.010;2023-06-22T04:05:51;21.68;62.60
65396;HTU21D;52004;45.136;39.010;2023-06-22T04:08:17;21.77;62.58
65396;HTU21D;52004;45.136;39.010;2023-06-22T04:10:43;21.87;62.53
65396;HTU21D;52004;45.136;39.010;2023-06-22T04:13:09;21.97;62.49
65396;HTU21D;52004;45.136;39.010;2023-06-22T04:15:35;22.06;62.45
65396;HTU21D;52004;45.136;39.010;2023-06-22T04:18:01;22.13;62.42
65396;HTU21D;52004;45.136;39.010;2023-06-22T04:20:27;22.20;62.37
65396;HTU21D;52004;45.136;39.010;2023-06-22T04:22:53;22.27;62.33
65396;HTU21D;52004;45.136;39.010;2023-06-22T04:25:19;22.36;62.30
65396;HTU21D;52004;45.136;39.010;2023-06-22T04:27:46;22.44;62.27
65396;HTU21D;52004;45.136;39.010;2023-06-22T04:30:11;22.52;62.26
65396;HTU21D;52004;45.136;39.010;2023-06-22T04:32:41;22.58;62.21
65396;HTU21D;52004;45.136;39.010;2023-06-22T04:35:07;22.66;62.21
65396;HTU21D;52004;45.136;39.010;2023-06-22T04:37:33;22.73;62.18
65396;HTU21D;52004;45.136;39.010;2023-06-22T04:39:59;22.82;62.16
65396;HTU21D;52004;45.136;39.010;2023-06-22T04:42:26;22.87;62.13
65396;HTU21D;52004;45.136;39.010;2023-06-22T04:44:52;22.96;62.15
65396;HTU21D;52004;45.136;39.010;2023-06-22T04:47:17;23.05;62.15
65396;HTU21D;52004;45.136;39.010;2023-06-22T04:49:43;23.14;62.13
65396;HTU21D;52004;45.136;39.010;2023-06-22T04:52:11;23.24;62.12
65396;HTU21D;52004;45.136;39.010;2023-06-22T04:54:37;23.34;62.12
65396;HTU21D;52004;45.136;39.010;2023-06-22T04:57:04;23.42;62.08
65396;HTU21D;52004;45.136;39.010;2023-06-22T04:59:30;23.50;62.04
65396;HTU21D;52004;45.136;39.010;2023-06-22T05:02:00;23.58;61.97
65396;HTU21D;52004;45.136;39.010;2023-06-22T05:04:27;0.00;61.97
65396;HTU21D;52004;45.136;39.010;2023-06-22T05:06:54;23.70;61.91
65396;HTU21D;52004;45.136;39.010;2023-06-22T05:09:20;23.77;61.90
65396;HTU21D;52004;45.136;39.010;2023-06-22T05:11:46;23.85;61.86
65396;HTU21D;52004;45.136;39.010;2023-06-22T05:14:12;23.91;61.86
65396;HTU21D;52004;45.136;39.010;2023-06-22T05:16:40;0.00;61.81
65396;HTU21D;52004;45.136;39.010;2023-06-22T05:19:06;24.05;61.78
65396;HTU21D;52004;45.136;39.010;2023-06-22T05:21:33;24.12;61.76
65396;HTU21D;52004;45.136;39.010;2023-06-22T05:23:58;0.00;61.71
65396;HTU21D;52004;45.136;39.010;2023-06-22T05:26:31;24.26;61.76
65396;HTU21D;52004;45.136;39.010;2023-06-22T05:28:58;24.33;61.74
65396;HTU21D;52004;45.136;39.010;2023-06-22T05:31:25;24.43;61.74
65396;HTU21D;52004;45.136;39.010;2023-06-22T05:33:51;24.49;61.63
65396;HTU21D;52004;45.136;39.010;2023-06-22T05:36:17;24.56;61.63
65396;HTU21D;52004;45.136;39.010;2023-06-22T05:38:45;24.63;61.63
65396;HTU21D;52004;45.136;39.010;2023-06-22T05:41:11;24.70;61.61
65396;HTU21D;52004;45.136;39.010;2023-06-22T05:43:37;24.77;61.60
65396;HTU21D;52004;45.136;39.010;2023-06-22T05:46:03;24.88;61.63
65396;HTU21D;52004;45.136;39.010;2023-06-22T05:48:30;24.98;61.61
65396;HTU21D;52004;45.136;39.010;2023-06-22T05:50:56;25.07;61.54
65396;HTU21D;52004;45.136;39.010;2023-06-22T05:53:22;25.17;61.50
65396;HTU21D;52004;45.136;39.010;2023-06-22T05:55:48;25.23;61.45
65396;HTU21D;52004;45.136;39.010;2023-06-22T05:58:14;25.31;61.40
65396;HTU21D;52004;45.136;39.010;2023-06-22T06:00:40;25.35;61.28
65396;HTU21D;52004;45.136;39.010;2023-06-22T06:03:06;25.39;61.34
65396;HTU21D;52004;45.136;39.010;2023-06-22T06:05:33;25.47;61.34
65396;HTU21D;52004;45.136;39.010;2023-06-22T06:08:03;25.57;61.26
65396;HTU21D;52004;45.136;39.010;2023-06-22T06:10:30;0.00;61.18
65396;HTU21D;52004;45.136;39.010;2023-06-22T06:12:56;25.69;61.12
65396;HTU21D;52004;45.136;39.010;2023-06-22T06:15:22;25.74;61.05
65396;HTU21D;52004;45.136;39.010;2023-06-22T06:17:48;25.78;60.99
65396;HTU21D;52004;45.136;39.010;2023-06-22T06:20:15;25.83;61.05
65396;HTU21D;52004;45.136;39.010;2023-06-22T06:22:41;0.00;61.02
65396;HTU21D;52004;45.136;39.010;2023-06-22T06:25:08;25.98;61.00
65396;HTU21D;52004;45.136;39.010;2023-06-22T06:27:34;26.06;60.99
65396;HTU21D;52004;45.136;39.010;2023-06-22T06:30:00;26.13;60.88
65396;HTU21D;52004;45.136;39.010;2023-06-22T06:32:26;26.18;60.76
65396;HTU21D;52004;45.136;39.010;2023-06-22T06:34:51;26.22;60.76
65396;HTU21D;52004;45.136;39.010;2023-06-22T06:37:17;26.27;60.72
65396;HTU21D;52004;45.136;39.010;2023-06-22T06:39:44;26.35;60.70
65396;HTU21D;52004;45.136;39.010;2023-06-22T06:42:10;26.41;60.66
65396;HTU21D;52004;45.136;39.010;2023-06-22T06:44:36;26.50;60.64
65396;HTU21D;52004;45.136;39.010;2023-06-22T06:47:03;26.58;60.64
65396;HTU21D;52004;45.136;39.010;2023-06-22T06:49:29;26.66;60.57
65396;HTU21D;52004;45.136;39.010;2023-06-22T06:51:55;26.75;60.50
65396;HTU21D;52004;45.136;39.010;2023-06-22T06:54:21;26.82;60.44
65396;HTU21D;52004;45.136;39.010;2023-06-22T06:56:47;26.90;60.31
65396;HTU21D;52004;45.136;39.010;2023-06-22T06:59:14;26.94;60.25
65396;HTU21D;52004;45.136;39.010;2023-06-22T07:01:41;27.00;60.25
65396;HTU21D;52004;45.136;39.010;2023-06-22T07:04:07;0.00;60.18
65396;HTU21D;52004;45.136;39.010;2023-06-22T07:10:21;27.23;60.02
65396;HTU21D;52004;45.136;39.010;2023-06-22T07:12:47;27.29;59.96
65396;HTU21D;52004;45.136;39.010;2023-06-22T07:15:13;27.36;59.85
65396;HTU21D;52004;45.136;39.010;2023-06-22T07:17:38;27.40;59.74
65396;HTU21D;52004;45.136;39.010;2023-06-22T07:20:06;27.44;59.65
65396;HTU21D;52004;45.136;39.010;2023-06-22T07:22:37;27.51;59.67
65396;HTU21D;52004;45.136;39.010;2023-06-22T07:25:04;27.54;59.41
65396;HTU21D;52004;45.136;39.010;2023-06-22T07:27:36;27.57;59.42
65396;HTU21D;52004;45.136;39.010;2023-06-22T07:30:03;27.65;59.36
65396;HTU21D;52004;45.136;39.010;2023-06-22T07:32:29;27.68;59.13
65396;HTU21D;52004;45.136;39.010;2023-06-22T07:34:55;27.71;59.19
65396;HTU21D;52004;45.136;39.010;2023-06-22T07:37:21;27.76;59.10
65396;HTU21D;52004;45.136;39.010;2023-06-22T07:39:47;27.83;59.03
65396;HTU21D;52004;45.136;39.010;2023-06-22T07:42:13;27.88;58.88
65396;HTU21D;52004;45.136;39.010;2023-06-22T07:44:44;27.97;58.87
65396;HTU21D;52004;45.136;39.010;2023-06-22T07:47:10;28.03;58.78
65396;HTU21D;52004;45.136;39.010;2023-06-22T07:49:36;28.09;58.60
65396;HTU21D;52004;45.136;39.010;2023-06-22T07:52:02;28.12;58.41
65396;HTU21D;52004;45.136;39.010;2023-06-22T07:54:28;28.13;58.29
65396;HTU21D;52004;45.136;39.010;2023-06-22T07:56:54;28.16;58.32
65396;HTU21D;52004;45.136;39.010;2023-06-22T07:59:20;28.19;58.25
65396;HTU21D;52004;45.136;39.010;2023-06-22T08:01:46;28.25;58.21
65396;HTU21D;52004;45.136;39.010;2023-06-22T08:04:14;28.27;58.13
65396;HTU21D;52004;45.136;39.010;2023-06-22T08:06:40;28.33;58.14
65396;HTU21D;52004;45.136;39.010;2023-06-22T08:09:07;28.43;58.16
65396;HTU21D;52004;45.136;39.010;2023-06-22T08:11:33;28.54;58.03
65396;HTU21D;52004;45.136;39.010;2023-06-22T08:13:59;28.61;57.97
65396;HTU21D;52004;45.136;39.010;2023-06-22T08:16:25;28.71;57.85
65396;HTU21D;52004;45.136;39.010;2023-06-22T08:18:51;28.78;57.84
65396;HTU21D;52004;45.136;39.010;2023-06-22T08:21:16;28.87;57.76
65396;HTU21D;52004;45.136;39.010;2023-06-22T08:23:42;28.93;57.64
65396;HTU21D;52004;45.136;39.010;2023-06-22T08:26:08;29.01;57.55
65396;HTU21D;52004;45.136;39.010;2023-06-22T08:28:34;29.04;57.37
65396;HTU21D;52004;45.136;39.010;2023-06-22T08:31:01;29.07;57.24
65396;HTU21D;52004;45.136;39.010;2023-06-22T08:33:27;29.12;57.17
65396;HTU21D;52004;45.136;39.010;2023-06-22T08:35:54;29.13;57.16
65396;HTU21D;52004;45.136;39.010;2023-06-22T08:38:20;29.17;57.09
65396;HTU21D;52004;45.136;39.010;2023-06-22T08:40:46;29.22;57.00
65396;HTU21D;52004;45.136;39.010;2023-06-22T08:43:12;29.27;56.97
65396;HTU21D;52004;45.136;39.010;2023-06-22T08:45:38;29.32;56.88
65396;HTU21D;52004;45.136;39.010;2023-06-22T08:48:04;29.38;56.87
65396;HTU21D;52004;45.136;39.010;2023-06-22T08:50:30;29.46;56.75
65396;HTU21D;52004;45.136;39.010;2023-06-22T08:52:56;29.48;56.48
65396;HTU21D;52004;45.136;39.010;2023-06-22T08:55:22;29.46;56.40
65396;HTU21D;52004;45.136;39.010;2023-06-22T08:57:48;0.00;56.41
65396;HTU21D;52004;45.136;39.010;2023-06-22T09:00:14;29.50;56.37
65396;HTU21D;52004;45.136;39.010;2023-06-22T09:02:43;29.56;56.34
65396;HTU21D;52004;45.136;39.010;2023-06-22T09:05:09;29.60;56.26
65396;HTU21D;52004;45.136;39.010;2023-06-22T09:07:35;29.63;56.13
65396;HTU21D;52004;45.136;39.010;2023-06-22T09:10:01;29.66;56.07
65396;HTU21D;52004;45.136;39.010;2023-06-22T09:12:52;29.68;55.97
65396;HTU21D;52004;45.136;39.010;2023-06-22T09:15:18;29.74;55.97
65396;HTU21D;52004;45.136;39.010;2023-06-22T09:17:44;29.78;55.82
65396;HTU21D;52004;45.136;39.010;2023-06-22T09:20:11;29.82;55.78
65396;HTU21D;52004;45.136;39.010;2023-06-22T09:22:37;29.88;55.72
65396;HTU21D;52004;45.136;39.010;2023-06-22T09:25:04;29.92;55.62
65396;HTU21D;52004;45.136;39.010;2023-06-22T09:27:30;29.95;55.47
65396;HTU21D;52004;45.136;39.010;2023-06-22T09:29:56;29.97;55.48
65396;HTU21D;52004;45.136;39.010;2023-06-22T09:32:24;30.02;55.45
65396;HTU21D;52004;45.136;39.010;2023-06-22T09:34:51;30.06;55.29
65396;HTU21D;52004;45.136;39.010;2023-06-22T09:37:17;30.08;55.23
65396;HTU21D;52004;45.136;39.010;2023-06-22T09:39:43;30.11;55.26
65396;HTU21D;52004;45.136;39.010;2023-06-22T09:42:08;30.16;55.18
65396;HTU21D;52004;45.136;39.010;2023-06-22T09:44:34;30.17;55.04
65396;HTU21D;52004;45.136;39.010;2023-06-22T09:47:00;30.21;55.07
65396;HTU21D;52004;45.136;39.010;2023-06-22T09:49:26;0.00;55.10
65396;HTU21D;52004;45.136;39.010;2023-06-22T09:51:52;30.38;55.04
65396;HTU21D;52004;45.136;39.010;2023-06-22T09:54:18;30.44;54.90
65396;HTU21D;52004;45.136;39.010;2023-06-22T09:56:44;30.46;54.91
65396;HTU21D;52004;45.136;39.010;2023-06-22T09:59:09;0.00;54.77
65396;HTU21D;52004;45.136;39.010;2023-06-22T10:02:01;30.41;54.55
65396;HTU21D;52004;45.136;39.010;2023-06-22T10:04:26;30.38;54.67
65396;HTU21D;52004;45.136;39.010;2023-06-22T10:06:52;30.41;54.72
65396;HTU21D;52004;45.136;39.010;2023-06-22T10:09:18;30.48;54.62
65396;HTU21D;52004;45.136;39.010;2023-06-22T10:11:44;30.52;54.55
65396;HTU21D;52004;45.136;39.010;2023-06-22T10:14:10;0.00;54.43
65396;HTU21D;52004;45.136;39.010;2023-06-22T10:16:36;30.57;54.35
65396;HTU21D;52004;45.136;39.010;2023-06-22T10:19:02;30.59;54.31
65396;HTU21D;52004;45.136;39.010;2023-06-22T10:21:28;30.60;54.23
65396;HTU21D;52004;45.136;39.010;2023-06-22T10:23:54;30.63;54.25
65396;HTU21D;52004;45.136;39.010;2023-06-22T10:26:21;30.68;54.10
65396;HTU21D;52004;45.136;39.010;2023-06-22T10:28:47;30.68;53.97
65396;HTU21D;52004;45.136;39.010;2023-06-22T10:31:13;30.68;53.90
65396;HTU21D;52004;45.136;39.010;2023-06-22T10:33:39;30.70;53.93
65396;HTU21D;52004;45.136;39.010;2023-06-22T10:36:07;0.00;53.79
65396;HTU21D;52004;45.136;39.010;2023-06-22T10:38:33;30.78;53.74
65396;HTU21D;52004;45.136;39.010;2023-06-22T10:40:58;30.80;53.72
65396;HTU21D;52004;45.136;39.010;2023-06-22T10:43:24;30.85;53.75
65396;HTU21D;52004;45.136;39.010;2023-06-22T10:45:50;30.90;53.62
65396;HTU21D;52004;45.136;39.010;2023-06-22T10:48:16;30.92;53.59
65396;HTU21D;52004;45.136;39.010;2023-06-22T10:50:42;30.95;53.54
65396;HTU21D;52004;45.136;39.010;2023-06-22T10:53:08;30.95;53.34
65396;HTU21D;52004;45.136;39.010;2023-06-22T10:55:34;30.95;53.37
65396;HTU21D;52004;45.136;39.010;2023-06-22T10:58:00;30.98;53.39
65396;HTU21D;52004;45.136;39.010;2023-06-22T11:00:26;31.02;53.23
65396;HTU21D;52004;45.136;39.010;2023-06-22T11:02:52;31.07;53.28
65396;HTU21D;52004;45.136;39.010;2023-06-22T11:05:18;31.12;53.23
65396;HTU21D;52004;45.136;39.010;2023-06-22T11:07:44;31.14;53.14
65396;HTU21D;52004;45.136;39.010;2023-06-22T11:10:10;31.20;53.02
65396;HTU21D;52004;45.136;39.010;2023-06-22T11:12:36;31.21;52.94
65396;HTU21D;52004;45.136;39.010;2023-06-22T11:15:02;31.23;52.86
65396;HTU21D;52004;45.136;39.010;2023-06-22T11:17:28;31.23;52.76
65396;HTU21D;52004;45.136;39.010;2023-06-22T11:19:54;31.14;52.59
65396;HTU21D;52004;45.136;39.010;2023-06-22T11:22:20;30.98;52.46
65396;HTU21D;52004;45.136;39.010;2023-06-22T11:24:47;30.90;52.69
65396;HTU21D;52004;45.136;39.010;2023-06-22T11:27:12;30.87;52.71
65396;HTU21D;52004;45.136;39.010;2023-06-22T11:29:38;30.90;52.64
65396;HTU21D;52004;45.136;39.010;2023-06-22T11:32:05;30.79;52.22
65396;HTU21D;52004;45.136;39.010;2023-06-22T11:34:32;30.56;52.16
65396;HTU21D;52004;45.136;39.010;2023-06-22T11:36:58;30.45;52.59
65396;HTU21D;52004;45.136;39.010;2023-06-22T11:39:24;30.45;52.70
65396;HTU21D;52004;45.136;39.010;2023-06-22T11:41:50;30.46;52.53
65396;HTU21D;52004;45.136;39.010;2023-06-22T11:44:16;30.41;52.46
65396;HTU21D;52004;45.136;39.010;2023-06-22T11:46:42;30.42;52.49
65396;HTU21D;52004;45.136;39.010;2023-06-22T11:49:08;30.46;52.51
65396;HTU21D;52004;45.136;39.010;2023-06-22T11:51:34;30.51;52.46
65396;HTU21D;52004;45.136;39.010;2023-06-22T11:54:00;30.61;52.53
65396;HTU21D;52004;45.136;39.010;2023-06-22T11:56:27;30.67;52.27
65396;HTU21D;52004;45.136;39.010;2023-06-22T11:58:53;30.70;52.17
65396;HTU21D;52004;45.136;39.010;2023-06-22T12:01:20;30.74;52.23
65396;HTU21D;52004;45.136;39.010;2023-06-22T12:03:46;30.79;52.12
65396;HTU21D;52004;45.136;39.010;2023-06-22T12:06:13;30.80;52.05
65396;HTU21D;52004;45.136;39.010;2023-06-22T12:08:40;30.82;52.01
65396;HTU21D;52004;45.136;39.010;2023-06-22T12:11:05;30.84;52.07
65396;HTU21D;52004;45.136;39.010;2023-06-22T12:13:31;30.90;51.99
65396;HTU21D;52004;45.136;39.010;2023-06-22T12:15:57;30.93;51.91
65396;HTU21D;52004;45.136;39.010;2023-06-22T12:18:23;30.93;51.80
65396;HTU21D;52004;45.136;39.010;2023-06-22T12:20:49;30.86;51.66
65396;HTU21D;52004;45.136;39.010;2023-06-22T12:23:15;30.82;51.75
65396;HTU21D;52004;45.136;39.010;2023-06-22T12:25:41;30.82;51.66
65396;HTU21D;52004;45.136;39.010;2023-06-22T12:28:07;30.78;51.59
65396;HTU21D;52004;45.136;39.010;2023-06-22T12:30:33;30.69;51.53
65396;HTU21D;52004;45.136;39.010;2023-06-22T12:32:59;30.62;51.54
65396;HTU21D;52004;45.136;39.010;2023-06-22T12:35:25;30.59;51.65
65396;HTU21D;52004;45.136;39.010;2023-06-22T12:37:51;30.55;51.46
65396;HTU21D;52004;45.136;39.010;2023-06-22T12:40:17;30.50;51.48
65396;HTU21D;52004;45.136;39.010;2023-06-22T12:42:44;30.50;51.48
65396;HTU21D;52004;45.136;39.010;2023-06-22T12:45:10;30.48;51.50
65396;HTU21D;52004;45.136;39.010;2023-06-22T12:47:36;30.50;51.52
65396;HTU21D;52004;45.136;39.010;2023-06-22T12:50:02;30.56;51.47
65396;HTU21D;52004;45.136;39.010;2023-06-22T12:52:30;30.57;51.34
65396;HTU21D;52004;45.136;39.010;2023-06-22T12:54:56;30.55;51.25
65396;HTU21D;52004;45.136;39.010;2023-06-22T12:57:22;0.00;51.15
65396;HTU21D;52004;45.136;39.010;2023-06-22T12:59:50;30.49;51.25
65396;HTU21D;52004;45.136;39.010;2023-06-22T13:02:16;0.00;51.21
65396;HTU21D;52004;45.136;39.010;2023-06-22T13:04:42;30.46;51.24
65396;HTU21D;52004;45.136;39.010;2023-06-22T13:07:08;30.46;51.15
65396;HTU21D;52004;45.136;39.010;2023-06-22T13:09:35;30.40;51.06
65396;HTU21D;52004;45.136;39.010;2023-06-22T13:12:01;30.36;51.00
65396;HTU21D;52004;45.136;39.010;2023-06-22T13:14:27;30.32;50.98
65396;HTU21D;52004;45.136;39.010;2023-06-22T13:16:53;30.30;51.05
65396;HTU21D;52004;45.136;39.010;2023-06-22T13:19:19;30.30;51.02
65396;HTU21D;52004;45.136;39.010;2023-06-22T13:21:45;30.25;50.92
65396;HTU21D;52004;45.136;39.010;2023-06-22T13:24:11;30.24;50.89
65396;HTU21D;52004;45.136;39.010;2023-06-22T13:26:37;30.20;50.87
65396;HTU21D;52004;45.136;39.010;2023-06-22T13:29:04;30.17;50.74
65396;HTU21D;52004;45.136;39.010;2023-06-22T13:31:29;30.11;50.63
65396;HTU21D;52004;45.136;39.010;2023-06-22T13:33:55;30.02;50.65
65396;HTU21D;52004;45.136;39.010;2023-06-22T13:36:21;29.96;50.69
65396;HTU21D;52004;45.136;39.010;2023-06-22T13:38:49;0.00;50.53
65396;HTU21D;52004;45.136;39.010;2023-06-22T13:41:15;29.85;50.68
65396;HTU21D;52004;45.136;39.010;2023-06-22T13:43:40;29.78;50.50
65396;HTU21D;52004;45.136;39.010;2023-06-22T13:46:06;29.75;50.57
65396;HTU21D;52004;45.136;39.010;2023-06-22T13:48:57;29.74;50.50
65396;HTU21D;52004;45.136;39.010;2023-06-22T13:51:48;29.70;50.47
65396;HTU21D;52004;45.136;39.010;2023-06-22T13:54:14;29.65;50.31
65396;HTU21D;52004;45.136;39.010;2023-06-22T13:56:40;29.61;50.40
65396;HTU21D;52004;45.136;39.010;2023-06-22T13:59:06;29.58;50.35
65396;HTU21D;52004;45.136;39.010;2023-06-22T14:01:35;29.53;50.34
65396;HTU21D;52004;45.136;39.010;2023-06-22T14:04:02;29.50;50.34
65396;HTU21D;52004;45.136;39.010;2023-06-22T14:06:28;0.00;50.30
65396;HTU21D;52004;45.136;39.010;2023-06-22T14:08:54;0.00;50.08
65396;HTU21D;52004;45.136;39.010;2023-06-22T14:11:20;29.39;50.21
65396;HTU21D;52004;45.136;39.010;2023-06-22T14:13:46;29.33;50.11
65396;HTU21D;52004;45.136;39.010;2023-06-22T14:16:12;0.00;50.20
65396;HTU21D;52004;45.136;39.010;2023-06-22T14:18:37;29.26;50.16
65396;HTU21D;52004;45.136;39.010;2023-06-22T14:21:03;29.20;50.22
65396;HTU21D;52004;45.136;39.010;2023-06-22T14:23:29;29.20;50.18
65396;HTU21D;52004;45.136;39.010;2023-06-22T14:25:55;29.20;50.18
65396;HTU21D;52004;45.136;39.010;2023-06-22T14:28:21;29.19;50.08
65396;HTU21D;52004;45.136;39.010;2023-06-22T14:30:47;29.19;50.04
65396;HTU21D;52004;45.136;39.010;2023-06-22T14:33:13;29.15;49.97
65396;HTU21D;52004;45.136;39.010;2023-06-22T14:35:39;29.13;50.01
65396;HTU21D;52004;45.136;39.010;2023-06-22T14:38:05;29.11;49.95
65396;HTU21D;52004;45.136;39.010;2023-06-22T14:40:31;29.06;49.89
65396;HTU21D;52004;45.136;39.010;2023-06-22T14:42:57;29.02;49.89
65396;HTU21D;52004;45.136;39.010;2023-06-22T14:45:23;28.95;49.76
65396;HTU21D;52004;45.136;39.010;2023-06-22T14:47:49;28.84;49.82
65396;HTU21D;52004;45.136;39.010;2023-06-22T14:50:15;28.74;49.94
65396;HTU21D;52004;45.136;39.010;2023-06-22T14:52:41;28.68;49.95
65396;HTU21D;52004;45.136;39.010;2023-06-22T14:55:07;28.62;49.99
65396;HTU21D;52004;45.136;39.010;2023-06-22T14:57:33;28.58;49.93
65396;HTU21D;52004;45.136;39.010;2023-06-22T14:59:59;28.52;49.95
65396;HTU21D;52004;45.136;39.010;2023-06-22T15:02:27;28.44;49.85
65396;HTU21D;52004;45.136;39.010;2023-06-22T15:04:53;28.40;49.97
65396;HTU21D;52004;45.136;39.010;2023-06-22T15:07:19;28.34;49.85